sensor_id;sensor_type;location;lat;lon;timestamp;P1;durP1;ratioP1;P2;durP2;ratioP2
22754;SDS011;11544;42.020;23.094;2023-01-01T00:01:22;123.25;;;56.58;;
22754;SDS011;11544;42.020;23.094;2023-01-01T00:03:50;125.40;;;55.92;;
22754;SDS011;11544;42.020;23.094;2023-01-01T00:06:17;130.65;;;61.85;;
22754;SDS011;11544;42.020;23.094;2023-01-01T00:08:44;122.55;;;55.97;;
22754;SDS011;11544;42.020;23.094;2023-01-01T00:11:12;96.00;;;47.08;;
22754;SDS011;11544;42.020;23.094;2023-01-01T00:13:40;69.85;;;33.05;;
22754;SDS011;11544;42.020;23.094;2023-01-01T00:16:08;85.75;;;39.10;;
22754;SDS011;11544;42.020;23.094;2023-01-01T00:18:37;65.25;;;31.25;;
22754;SDS011;11544;42.020;23.094;2023-01-01T00:21:05;71.95;;;37.03;;
22754;SDS011;11544;42.020;23.094;2023-01-01T00:23:37;80.75;;;35.88;;
22754;SDS011;11544;42.020;23.094;2023-01-01T00:26:08;71.53;;;34.00;;
22754;SDS011;11544;42.020;23.094;2023-01-01T00:28:39;66.55;;;33.25;;
22754;SDS011;11544;42.020;23.094;2023-01-01T00:31:07;63.78;;;30.00;;
22754;SDS011;11544;42.020;23.094;2023-01-01T00:33:35;50.50;;;26.17;;
22754;SDS011;11544;42.020;23.094;2023-01-01T00:36:21;60.38;;;29.23;;
22754;SDS011;11544;42.020;23.094;2023-01-01T00:38:49;55.20;;;27.85;;
22754;SDS011;11544;42.020;23.094;2023-01-01T00:41:16;67.20;;;29.83;;
22754;SDS011;11544;42.020;23.094;2023-01-01T00:43:44;61.65;;;27.67;;
22754;SDS011;11544;42.020;23.094;2023-01-01T00:46:11;67.55;;;30.58;;
22754;SDS011;11544;42.020;23.094;2023-01-01T00:48:38;62.10;;;27.70;;
22754;SDS011;11544;42.020;23.094;2023-01-01T00:51:06;74.45;;;35.20;;
22754;SDS011;11544;42.020;23.094;2023-01-01T00:53:33;94.85;;;44.67;;
22754;SDS011;11544;42.020;23.094;2023-01-01T00:56:00;90.55;;;45.10;;
22754;SDS011;11544;42.020;23.094;2023-01-01T00:58:27;87.47;;;43.33;;
22754;SDS011;11544;42.020;23.094;2023-01-01T01:00:54;77.35;;;38.40;;
22754;SDS011;11544;42.020;23.094;2023-01-01T01:03:21;83.53;;;39.03;;
22754;SDS011;11544;42.020;23.094;2023-01-01T01:08:31;75.93;;;37.30;;
22754;SDS011;11544;42.020;23.094;2023-01-01T01:11:06;82.82;;;38.13;;
22754;SDS011;11544;42.020;23.094;2023-01-01T01:13:35;70.68;;;36.95;;
22754;SDS011;11544;42.020;23.094;2023-01-01T01:16:07;75.55;;;35.85;;
22754;SDS011;11544;42.020;23.094;2023-01-01T01:18:35;76.70;;;38.50;;
22754;SDS011;11544;42.020;23.094;2023-01-01T01:21:03;84.70;;;38.30;;
22754;SDS011;11544;42.020;23.094;2023-01-01T01:23:31;82.43;;;40.95;;
22754;SDS011;11544;42.020;23.094;2023-01-01T01:26:05;72.88;;;39.63;;
22754;SDS011;11544;42.020;23.094;2023-01-01T01:28:40;84.43;;;42.80;;
22754;SDS011;11544;42.020;23.094;2023-01-01T01:31:14;85.78;;;42.67;;
22754;SDS011;11544;42.020;23.094;2023-01-01T01:33:43;92.85;;;43.92;;
22754;SDS011;11544;42.020;23.094;2023-01-01T01:36:11;94.93;;;44.15;;
22754;SDS011;11544;42.020;23.094;2023-01-01T01:38:38;96.32;;;47.28;;
22754;SDS011;11544;42.020;23.094;2023-01-01T01:41:05;104.63;;;49.55;;
22754;SDS011;11544;42.020;23.094;2023-01-01T01:48:38;85.57;;;43.40;;
22754;SDS011;11544;42.020;23.094;2023-01-01T01:51:08;88.07;;;38.10;;
22754;SDS011;11544;42.020;23.094;2023-01-01T01:53:40;91.07;;;43.85;;
22754;SDS011;11544;42.020;23.094;2023-01-01T01:56:12;91.65;;;44.50;;
22754;SDS011;11544;42.020;23.094;2023-01-01T01:58:43;81.80;;;39.00;;
22754;SDS011;11544;42.020;23.094;2023-01-01T02:01:09;81.80;;;39.78;;
22754;SDS011;11544;42.020;23.094;2023-01-01T02:06:26;78.25;;;37.63;;
22754;SDS011;11544;42.020;23.094;2023-01-01T02:08:56;80.03;;;38.22;;
22754;SDS011;11544;42.020;23.094;2023-01-01T02:11:24;63.70;;;32.40;;
22754;SDS011;11544;42.020;23.094;2023-01-01T02:13:51;63.97;;;32.20;;
22754;SDS011;11544;42.020;23.094;2023-01-01T02:16:22;53.10;;;26.48;;
22754;SDS011;11544;42.020;23.094;2023-01-01T02:19:06;53.28;;;25.75;;
22754;SDS011;11544;42.020;23.094;2023-01-01T02:29:57;27.15;;;12.30;;
22754;SDS011;11544;42.020;23.094;2023-01-01T02:32:30;21.85;;;11.82;;
22754;SDS011;11544;42.020;23.094;2023-01-01T02:35:09;24.55;;;13.60;;
22754;SDS011;11544;42.020;23.094;2023-01-01T02:38:21;33.40;;;16.33;;
22754;SDS011;11544;42.020;23.094;2023-01-01T02:41:08;38.15;;;19.00;;
22754;SDS011;11544;42.020;23.094;2023-01-01T02:43:41;53.75;;;23.10;;
22754;SDS011;11544;42.020;23.094;2023-01-01T02:46:09;74.05;;;34.13;;
22754;SDS011;11544;42.020;23.094;2023-01-01T02:48:48;74.03;;;34.70;;
22754;SDS011;11544;42.020;23.094;2023-01-01T03:12:01;64.63;;;31.10;;
22754;SDS011;11544;42.020;23.094;2023-01-01T03:17:40;60.03;;;29.35;;
22754;SDS011;11544;42.020;23.094;2023-01-01T03:20:18;64.07;;;30.85;;
22754;SDS011;11544;42.020;23.094;2023-01-01T03:23:06;63.53;;;31.55;;
22754;SDS011;11544;42.020;23.094;2023-01-01T03:25:39;58.42;;;28.10;;
22754;SDS011;11544;42.020;23.094;2023-01-01T03:28:15;57.90;;;26.45;;
22754;SDS011;11544;42.020;23.094;2023-01-01T03:30:48;66.88;;;29.92;;
22754;SDS011;11544;42.020;23.094;2023-01-01T03:36:35;57.67;;;27.45;;
22754;SDS011;11544;42.020;23.094;2023-01-01T03:39:08;68.82;;;30.98;;
22754;SDS011;11544;42.020;23.094;2023-01-01T03:44:39;69.25;;;30.13;;
22754;SDS011;11544;42.020;23.094;2023-01-01T03:47:17;73.72;;;29.60;;
22754;SDS011;11544;42.020;23.094;2023-01-01T03:49:45;66.72;;;28.73;;
22754;SDS011;11544;42.020;23.094;2023-01-01T04:00:23;71.40;;;28.48;;
22754;SDS011;11544;42.020;23.094;2023-01-01T04:05:39;60.22;;;26.92;;
22754;SDS011;11544;42.020;23.094;2023-01-01T04:08:07;63.72;;;29.67;;
22754;SDS011;11544;42.020;23.094;2023-01-01T04:10:56;58.92;;;26.02;;
22754;SDS011;11544;42.020;23.094;2023-01-01T04:13:24;55.92;;;26.17;;
22754;SDS011;11544;42.020;23.094;2023-01-01T04:15:51;60.03;;;27.65;;
22754;SDS011;11544;42.020;23.094;2023-01-01T04:18:18;57.92;;;26.55;;
22754;SDS011;11544;42.020;23.094;2023-01-01T04:20:45;57.13;;;24.13;;
22754;SDS011;11544;42.020;23.094;2023-01-01T04:23:12;63.67;;;26.23;;
22754;SDS011;11544;42.020;23.094;2023-01-01T04:25:39;54.88;;;25.20;;
22754;SDS011;11544;42.020;23.094;2023-01-01T04:28:05;58.17;;;26.15;;
22754;SDS011;11544;42.020;23.094;2023-01-01T04:30:32;57.88;;;25.83;;
22754;SDS011;11544;42.020;23.094;2023-01-01T04:32:58;56.50;;;25.55;;
22754;SDS011;11544;42.020;23.094;2023-01-01T04:35:25;48.88;;;23.25;;
22754;SDS011;11544;42.020;23.094;2023-01-01T04:37:52;61.28;;;25.65;;
22754;SDS011;11544;42.020;23.094;2023-01-01T04:40:19;56.88;;;25.00;;
22754;SDS011;11544;42.020;23.094;2023-01-01T04:42:46;52.40;;;25.08;;
22754;SDS011;11544;42.020;23.094;2023-01-01T04:45:12;57.30;;;24.95;;
22754;SDS011;11544;42.020;23.094;2023-01-01T04:47:41;46.20;;;22.42;;
22754;SDS011;11544;42.020;23.094;2023-01-01T04:50:08;57.75;;;25.88;;
22754;SDS011;11544;42.020;23.094;2023-01-01T04:52:35;59.50;;;26.63;;
22754;SDS011;11544;42.020;23.094;2023-01-01T04:55:02;59.47;;;27.05;;
22754;SDS011;11544;42.020;23.094;2023-01-01T04:57:29;64.10;;;27.85;;
22754;SDS011;11544;42.020;23.094;2023-01-01T04:59:57;59.03;;;27.45;;
22754;SDS011;11544;42.020;23.094;2023-01-01T05:02:23;60.00;;;25.98;;
22754;SDS011;11544;42.020;23.094;2023-01-01T05:04:54;66.43;;;30.05;;
22754;SDS011;11544;42.020;23.094;2023-01-01T05:07:22;76.57;;;32.03;;
22754;SDS011;11544;42.020;23.094;2023-01-01T05:09:49;80.72;;;32.38;;
22754;SDS011;11544;42.020;23.094;2023-01-01T05:12:16;76.50;;;33.50;;
22754;SDS011;11544;42.020;23.094;2023-01-01T05:14:43;79.78;;;33.60;;
22754;SDS011;11544;42.020;23.094;2023-01-01T05:17:10;74.43;;;30.23;;
22754;SDS011;11544;42.020;23.094;2023-01-01T05:19:37;72.53;;;32.65;;
22754;SDS011;11544;42.020;23.094;2023-01-01T05:22:04;78.95;;;31.13;;
22754;SDS011;11544;42.020;23.094;2023-01-01T05:24:36;69.40;;;29.15;;
22754;SDS011;11544;42.020;23.094;2023-01-01T05:27:03;81.38;;;32.35;;
22754;SDS011;11544;42.020;23.094;2023-01-01T05:29:30;69.28;;;28.80;;
22754;SDS011;11544;42.020;23.094;2023-01-01T05:32:00;63.13;;;28.65;;
22754;SDS011;11544;42.020;23.094;2023-01-01T05:34:30;66.63;;;28.33;;
22754;SDS011;11544;42.020;23.094;2023-01-01T05:36:56;68.10;;;28.58;;
22754;SDS011;11544;42.020;23.094;2023-01-01T05:39:26;69.43;;;27.65;;
22754;SDS011;11544;42.020;23.094;2023-01-01T05:42:03;64.68;;;28.17;;
22754;SDS011;11544;42.020;23.094;2023-01-01T05:44:41;66.63;;;27.40;;
22754;SDS011;11544;42.020;23.094;2023-01-01T05:47:08;59.63;;;26.65;;
22754;SDS011;11544;42.020;23.094;2023-01-01T05:49:35;66.05;;;27.10;;
22754;SDS011;11544;42.020;23.094;2023-01-01T05:52:02;75.47;;;27.83;;
22754;SDS011;11544;42.020;23.094;2023-01-01T05:54:29;57.72;;;25.45;;
22754;SDS011;11544;42.020;23.094;2023-01-01T05:56:56;62.50;;;25.33;;
22754;SDS011;11544;42.020;23.094;2023-01-01T05:59:23;61.03;;;26.67;;
22754;SDS011;11544;42.020;23.094;2023-01-01T06:01:50;57.75;;;24.38;;
22754;SDS011;11544;42.020;23.094;2023-01-01T06:04:17;60.42;;;25.70;;
22754;SDS011;11544;42.020;23.094;2023-01-01T06:06:44;55.92;;;25.35;;
22754;SDS011;11544;42.020;23.094;2023-01-01T06:09:11;69.78;;;27.75;;
22754;SDS011;11544;42.020;23.094;2023-01-01T06:11:38;63.38;;;25.75;;
22754;SDS011;11544;42.020;23.094;2023-01-01T06:14:05;61.28;;;26.45;;
22754;SDS011;11544;42.020;23.094;2023-01-01T06:16:32;56.97;;;24.42;;
22754;SDS011;11544;42.020;23.094;2023-01-01T06:18:59;60.30;;;27.58;;
22754;SDS011;11544;42.020;23.094;2023-01-01T06:21:26;56.03;;;25.45;;
22754;SDS011;11544;42.020;23.094;2023-01-01T06:23:56;62.13;;;25.02;;
22754;SDS011;11544;42.020;23.094;2023-01-01T06:26:25;51.33;;;24.67;;
22754;SDS011;11544;42.020;23.094;2023-01-01T06:28:57;56.85;;;27.05;;
22754;SDS011;11544;42.020;23.094;2023-01-01T06:31:25;64.53;;;26.70;;
22754;SDS011;11544;42.020;23.094;2023-01-01T06:33:53;52.35;;;23.55;;
22754;SDS011;11544;42.020;23.094;2023-01-01T06:36:21;61.38;;;25.05;;
22754;SDS011;11544;42.020;23.094;2023-01-01T06:38:50;50.10;;;23.23;;
22754;SDS011;11544;42.020;23.094;2023-01-01T06:41:20;57.15;;;24.60;;
22754;SDS011;11544;42.020;23.094;2023-01-01T06:43:48;49.58;;;24.30;;
22754;SDS011;11544;42.020;23.094;2023-01-01T06:46:17;50.03;;;23.65;;
22754;SDS011;11544;42.020;23.094;2023-01-01T06:48:47;56.42;;;24.65;;
22754;SDS011;11544;42.020;23.094;2023-01-01T06:51:16;67.65;;;26.17;;
22754;SDS011;11544;42.020;23.094;2023-01-01T06:53:45;55.92;;;24.60;;
22754;SDS011;11544;42.020;23.094;2023-01-01T06:56:12;61.97;;;26.08;;
22754;SDS011;11544;42.020;23.094;2023-01-01T06:58:40;65.45;;;27.65;;
22754;SDS011;11544;42.020;23.094;2023-01-01T07:01:13;57.00;;;24.95;;
22754;SDS011;11544;42.020;23.094;2023-01-01T07:03:42;59.80;;;25.30;;
22754;SDS011;11544;42.020;23.094;2023-01-01T07:06:10;62.45;;;24.85;;
22754;SDS011;11544;42.020;23.094;2023-01-01T07:08:37;62.95;;;25.83;;
22754;SDS011;11544;42.020;23.094;2023-01-01T07:11:04;55.58;;;24.92;;
22754;SDS011;11544;42.020;23.094;2023-01-01T07:13:31;61.15;;;24.92;;
22754;SDS011;11544;42.020;23.094;2023-01-01T07:15:58;58.80;;;24.98;;
22754;SDS011;11544;42.020;23.094;2023-01-01T07:18:26;61.15;;;27.35;;
22754;SDS011;11544;42.020;23.094;2023-01-01T07:21:00;68.57;;;27.45;;
22754;SDS011;11544;42.020;23.094;2023-01-01T07:23:29;60.75;;;25.02;;
22754;SDS011;11544;42.020;23.094;2023-01-01T07:25:58;54.83;;;21.67;;
22754;SDS011;11544;42.020;23.094;2023-01-01T07:28:26;69.82;;;26.17;;
22754;SDS011;11544;42.020;23.094;2023-01-01T07:30:53;71.43;;;28.98;;
22754;SDS011;11544;42.020;23.094;2023-01-01T07:33:20;78.40;;;30.08;;
22754;SDS011;11544;42.020;23.094;2023-01-01T07:35:49;67.10;;;27.20;;
22754;SDS011;11544;42.020;23.094;2023-01-01T07:38:16;75.60;;;27.38;;
22754;SDS011;11544;42.020;23.094;2023-01-01T07:40:42;70.85;;;29.10;;
22754;SDS011;11544;42.020;23.094;2023-01-01T07:43:09;69.85;;;27.95;;
22754;SDS011;11544;42.020;23.094;2023-01-01T07:45:38;80.75;;;29.40;;
22754;SDS011;11544;42.020;23.094;2023-01-01T07:48:05;66.75;;;30.08;;
22754;SDS011;11544;42.020;23.094;2023-01-01T07:50:34;84.60;;;30.80;;
22754;SDS011;11544;42.020;23.094;2023-01-01T07:53:03;73.47;;;31.42;;
22754;SDS011;11544;42.020;23.094;2023-01-01T07:55:30;83.22;;;32.47;;
22754;SDS011;11544;42.020;23.094;2023-01-01T07:57:57;85.10;;;31.38;;
22754;SDS011;11544;42.020;23.094;2023-01-01T08:00:24;83.53;;;33.13;;
22754;SDS011;11544;42.020;23.094;2023-01-01T08:02:51;83.88;;;31.77;;
22754;SDS011;11544;42.020;23.094;2023-01-01T08:05:18;87.25;;;33.83;;
22754;SDS011;11544;42.020;23.094;2023-01-01T08:07:52;95.28;;;36.20;;
22754;SDS011;11544;42.020;23.094;2023-01-01T08:10:18;91.03;;;34.70;;
22754;SDS011;11544;42.020;23.094;2023-01-01T08:12:46;95.90;;;33.88;;
22754;SDS011;11544;42.020;23.094;2023-01-01T08:15:13;81.18;;;33.00;;
22754;SDS011;11544;42.020;23.094;2023-01-01T08:17:41;79.22;;;33.08;;
22754;SDS011;11544;42.020;23.094;2023-01-01T08:20:12;89.68;;;32.70;;
22754;SDS011;11544;42.020;23.094;2023-01-01T08:22:39;69.72;;;29.63;;
22754;SDS011;11544;42.020;23.094;2023-01-01T08:25:06;82.28;;;32.58;;
22754;SDS011;11544;42.020;23.094;2023-01-01T08:27:33;86.78;;;33.47;;
22754;SDS011;11544;42.020;23.094;2023-01-01T08:30:00;79.40;;;32.10;;
22754;SDS011;11544;42.020;23.094;2023-01-01T08:32:27;88.53;;;33.67;;
22754;SDS011;11544;42.020;23.094;2023-01-01T08:34:54;82.57;;;34.05;;
22754;SDS011;11544;42.020;23.094;2023-01-01T08:37:22;84.90;;;33.42;;
22754;SDS011;11544;42.020;23.094;2023-01-01T08:39:50;84.43;;;34.35;;
22754;SDS011;11544;42.020;23.094;2023-01-01T08:42:17;95.20;;;36.58;;
22754;SDS011;11544;42.020;23.094;2023-01-01T08:44:44;79.35;;;31.58;;
22754;SDS011;11544;42.020;23.094;2023-01-01T08:49:45;77.55;;;29.75;;
22754;SDS011;11544;42.020;23.094;2023-01-01T08:52:14;74.22;;;29.13;;
22754;SDS011;11544;42.020;23.094;2023-01-01T08:54:42;78.60;;;29.50;;
22754;SDS011;11544;42.020;23.094;2023-01-01T08:57:09;73.80;;;30.27;;
22754;SDS011;11544;42.020;23.094;2023-01-01T08:59:36;75.72;;;30.25;;
22754;SDS011;11544;42.020;23.094;2023-01-01T09:02:03;75.75;;;30.80;;
22754;SDS011;11544;42.020;23.094;2023-01-01T09:04:30;80.80;;;31.42;;
22754;SDS011;11544;42.020;23.094;2023-01-01T09:06:58;90.30;;;30.23;;
22754;SDS011;11544;42.020;23.094;2023-01-01T09:09:58;89.15;;;31.42;;
22754;SDS011;11544;42.020;23.094;2023-01-01T09:12:25;74.53;;;28.73;;
22754;SDS011;11544;42.020;23.094;2023-01-01T09:14:53;73.90;;;29.05;;
22754;SDS011;11544;42.020;23.094;2023-01-01T09:17:24;77.10;;;30.70;;
22754;SDS011;11544;42.020;23.094;2023-01-01T09:19:51;95.47;;;35.13;;
22754;SDS011;11544;42.020;23.094;2023-01-01T09:22:17;90.38;;;35.33;;
22754;SDS011;11544;42.020;23.094;2023-01-01T09:24:44;107.30;;;38.95;;
22754;SDS011;11544;42.020;23.094;2023-01-01T09:27:11;97.68;;;36.63;;
22754;SDS011;11544;42.020;23.094;2023-01-01T09:29:38;83.70;;;33.22;;
22754;SDS011;11544;42.020;23.094;2023-01-01T09:32:04;85.97;;;34.97;;
22754;SDS011;11544;42.020;23.094;2023-01-01T09:34:31;87.85;;;33.60;;
22754;SDS011;11544;42.020;23.094;2023-01-01T09:37:02;103.00;;;34.85;;
22754;SDS011;11544;42.020;23.094;2023-01-01T09:39:28;107.82;;;40.10;;
22754;SDS011;11544;42.020;23.094;2023-01-01T09:47:56;105.00;;;40.60;;
22754;SDS011;11544;42.020;23.094;2023-01-01T09:50:04;119.25;;;43.47;;
22754;SDS011;11544;42.020;23.094;2023-01-01T09:52:45;109.30;;;41.40;;
22754;SDS011;11544;42.020;23.094;2023-01-01T09:55:29;116.68;;;41.47;;
22754;SDS011;11544;42.020;23.094;2023-01-01T09:58:09;102.20;;;41.55;;
22754;SDS011;11544;42.020;23.094;2023-01-01T10:00:43;113.30;;;44.58;;
22754;SDS011;11544;42.020;23.094;2023-01-01T10:06:26;115.00;;;43.97;;
22754;SDS011;11544;42.020;23.094;2023-01-01T10:14:32;123.43;;;46.80;;
22754;SDS011;11544;42.020;23.094;2023-01-01T10:17:04;100.55;;;41.50;;
22754;SDS011;11544;42.020;23.094;2023-01-01T10:20:03;103.00;;;42.20;;
22754;SDS011;11544;42.020;23.094;2023-01-01T10:22:50;107.95;;;44.38;;
22754;SDS011;11544;42.020;23.094;2023-01-01T10:25:21;106.50;;;42.33;;
22754;SDS011;11544;42.020;23.094;2023-01-01T10:27:59;105.40;;;44.20;;
22754;SDS011;11544;42.020;23.094;2023-01-01T10:30:28;96.32;;;40.03;;
22754;SDS011;11544;42.020;23.094;2023-01-01T10:32:56;89.30;;;39.30;;
22754;SDS011;11544;42.020;23.094;2023-01-01T10:38:23;75.10;;;32.42;;
22754;SDS011;11544;42.020;23.094;2023-01-01T10:40:52;65.10;;;31.73;;
22754;SDS011;11544;42.020;23.094;2023-01-01T10:43:23;78.47;;;35.63;;
22754;SDS011;11544;42.020;23.094;2023-01-01T10:45:51;65.45;;;30.67;;
22754;SDS011;11544;42.020;23.094;2023-01-01T10:48:20;64.72;;;29.20;;
22754;SDS011;11544;42.020;23.094;2023-01-01T10:50:52;62.28;;;30.73;;
22754;SDS011;11544;42.020;23.094;2023-01-01T10:58:32;60.28;;;26.92;;
22754;SDS011;11544;42.020;23.094;2023-01-01T11:01:12;68.78;;;28.70;;
22754;SDS011;11544;42.020;23.094;2023-01-01T11:06:20;62.97;;;29.30;;
22754;SDS011;11544;42.020;23.094;2023-01-01T11:08:59;53.70;;;26.80;;
22754;SDS011;11544;42.020;23.094;2023-01-01T11:11:43;58.40;;;28.10;;
22754;SDS011;11544;42.020;23.094;2023-01-01T11:14:21;61.33;;;29.98;;
22754;SDS011;11544;42.020;23.094;2023-01-01T11:16:53;64.70;;;29.50;;
22754;SDS011;11544;42.020;23.094;2023-01-01T11:19:31;66.35;;;32.00;;
22754;SDS011;11544;42.020;23.094;2023-01-01T11:22:02;61.55;;;29.33;;
22754;SDS011;11544;42.020;23.094;2023-01-01T11:24:30;61.78;;;30.17;;
22754;SDS011;11544;42.020;23.094;2023-01-01T11:27:19;53.00;;;27.13;;
22754;SDS011;11544;42.020;23.094;2023-01-01T11:29:49;55.90;;;27.65;;
22754;SDS011;11544;42.020;23.094;2023-01-01T11:32:22;52.80;;;26.60;;
22754;SDS011;11544;42.020;23.094;2023-01-01T11:34:59;60.80;;;29.58;;
22754;SDS011;11544;42.020;23.094;2023-01-01T11:37:31;45.45;;;23.83;;
22754;SDS011;11544;42.020;23.094;2023-01-01T11:40:02;49.13;;;24.48;;
22754;SDS011;11544;42.020;23.094;2023-01-01T11:42:34;41.55;;;20.63;;
22754;SDS011;11544;42.020;23.094;2023-01-01T11:49:56;35.92;;;20.58;;
22754;SDS011;11544;42.020;23.094;2023-01-01T11:52:46;38.22;;;20.85;;
22754;SDS011;11544;42.020;23.094;2023-01-01T11:57:44;41.85;;;19.00;;
22754;SDS011;11544;42.020;23.094;2023-01-01T12:00:16;48.65;;;20.63;;
22754;SDS011;11544;42.020;23.094;2023-01-01T12:02:55;41.88;;;20.75;;
22754;SDS011;11544;42.020;23.094;2023-01-01T12:05:33;37.28;;;20.17;;
22754;SDS011;11544;42.020;23.094;2023-01-01T12:08:16;37.60;;;19.58;;
22754;SDS011;11544;42.020;23.094;2023-01-01T12:10:50;33.72;;;19.17;;
22754;SDS011;11544;42.020;23.094;2023-01-01T12:13:24;39.42;;;19.73;;
22754;SDS011;11544;42.020;23.094;2023-01-01T12:18:33;42.92;;;20.48;;
22754;SDS011;11544;42.020;23.094;2023-01-01T12:21:19;29.50;;;18.23;;
22754;SDS011;11544;42.020;23.094;2023-01-01T12:23:50;39.70;;;19.13;;
22754;SDS011;11544;42.020;23.094;2023-01-01T12:32:10;31.25;;;15.38;;
22754;SDS011;11544;42.020;23.094;2023-01-01T12:40:49;27.95;;;14.32;;
22754;SDS011;11544;42.020;23.094;2023-01-01T12:43:21;29.00;;;15.85;;
22754;SDS011;11544;42.020;23.094;2023-01-01T12:48:59;28.10;;;15.07;;
22754;SDS011;11544;42.020;23.094;2023-01-01T12:54:45;37.10;;;19.20;;
22754;SDS011;11544;42.020;23.094;2023-01-01T13:00:01;32.58;;;16.98;;
22754;SDS011;11544;42.020;23.094;2023-01-01T13:02:36;25.30;;;15.20;;
22754;SDS011;11544;42.020;23.094;2023-01-01T13:05:27;26.02;;;14.38;;
22754;SDS011;11544;42.020;23.094;2023-01-01T13:07:57;26.40;;;14.55;;
22754;SDS011;11544;42.020;23.094;2023-01-01T13:10:32;26.17;;;13.68;;
22754;SDS011;11544;42.020;23.094;2023-01-01T13:13:02;32.00;;;17.35;;
22754;SDS011;11544;42.020;23.094;2023-01-01T13:15:34;26.33;;;15.00;;
22754;SDS011;11544;42.020;23.094;2023-01-01T13:18:17;25.92;;;15.15;;
22754;SDS011;11544;42.020;23.094;2023-01-01T13:20:46;35.03;;;17.65;;
22754;SDS011;11544;42.020;23.094;2023-01-01T13:39:52;28.85;;;15.18;;
22754;SDS011;11544;42.020;23.094;2023-01-01T13:45:24;19.27;;;10.80;;
22754;SDS011;11544;42.020;23.094;2023-01-01T13:53:26;26.83;;;14.13;;
22754;SDS011;11544;42.020;23.094;2023-01-01T14:04:10;29.25;;;15.80;;
22754;SDS011;11544;42.020;23.094;2023-01-01T14:06:59;31.98;;;15.40;;
22754;SDS011;11544;42.020;23.094;2023-01-01T14:09:49;25.52;;;14.82;;
22754;SDS011;11544;42.020;23.094;2023-01-01T14:12:17;25.63;;;14.68;;
22754;SDS011;11544;42.020;23.094;2023-01-01T14:14:46;27.60;;;14.77;;
22754;SDS011;11544;42.020;23.094;2023-01-01T14:17:14;22.80;;;13.15;;
22754;SDS011;11544;42.020;23.094;2023-01-01T14:19:42;24.98;;;14.07;;
22754;SDS011;11544;42.020;23.094;2023-01-01T14:22:10;23.08;;;12.73;;
22754;SDS011;11544;42.020;23.094;2023-01-01T14:24:42;26.08;;;15.80;;
22754;SDS011;11544;42.020;23.094;2023-01-01T14:27:18;24.55;;;13.10;;
22754;SDS011;11544;42.020;23.094;2023-01-01T14:29:47;25.23;;;13.18;;
22754;SDS011;11544;42.020;23.094;2023-01-01T14:32:20;24.90;;;12.85;;
22754;SDS011;11544;42.020;23.094;2023-01-01T14:34:59;24.85;;;12.48;;
22754;SDS011;11544;42.020;23.094;2023-01-01T14:37:27;24.58;;;13.80;;
22754;SDS011;11544;42.020;23.094;2023-01-01T14:40:04;22.10;;;13.05;;
22754;SDS011;11544;42.020;23.094;2023-01-01T14:42:41;26.20;;;12.77;;
22754;SDS011;11544;42.020;23.094;2023-01-01T14:45:15;24.52;;;13.05;;
22754;SDS011;11544;42.020;23.094;2023-01-01T14:47:50;21.13;;;12.65;;
22754;SDS011;11544;42.020;23.094;2023-01-01T14:50:22;36.22;;;18.38;;
22754;SDS011;11544;42.020;23.094;2023-01-01T14:52:56;35.38;;;18.98;;
22754;SDS011;11544;42.020;23.094;2023-01-01T14:55:39;32.13;;;18.98;;
22754;SDS011;11544;42.020;23.094;2023-01-01T14:58:18;34.70;;;19.48;;
22754;SDS011;11544;42.020;23.094;2023-01-01T15:00:48;43.05;;;23.35;;
22754;SDS011;11544;42.020;23.094;2023-01-01T15:03:20;43.97;;;22.95;;
22754;SDS011;11544;42.020;23.094;2023-01-01T15:05:59;41.75;;;23.05;;
22754;SDS011;11544;42.020;23.094;2023-01-01T15:08:28;57.55;;;28.35;;
22754;SDS011;11544;42.020;23.094;2023-01-01T15:10:55;45.15;;;25.98;;
22754;SDS011;11544;42.020;23.094;2023-01-01T15:13:23;46.22;;;24.23;;
22754;SDS011;11544;42.020;23.094;2023-01-01T15:15:56;43.92;;;22.70;;
22754;SDS011;11544;42.020;23.094;2023-01-01T15:18:44;38.28;;;20.27;;
22754;SDS011;11544;42.020;23.094;2023-01-01T15:24:08;44.75;;;20.88;;
22754;SDS011;11544;42.020;23.094;2023-01-01T15:26:39;38.65;;;19.38;;
22754;SDS011;11544;42.020;23.094;2023-01-01T15:29:15;38.28;;;19.10;;
22754;SDS011;11544;42.020;23.094;2023-01-01T15:31:48;35.20;;;17.48;;
22754;SDS011;11544;42.020;23.094;2023-01-01T15:34:22;36.88;;;18.88;;
22754;SDS011;11544;42.020;23.094;2023-01-01T15:36:53;27.15;;;16.83;;
22754;SDS011;11544;42.020;23.094;2023-01-01T15:39:21;32.65;;;16.33;;
22754;SDS011;11544;42.020;23.094;2023-01-01T15:41:50;29.77;;;15.95;;
22754;SDS011;11544;42.020;23.094;2023-01-01T15:44:25;28.33;;;14.73;;
22754;SDS011;11544;42.020;23.094;2023-01-01T15:47:02;25.83;;;14.30;;
22754;SDS011;11544;42.020;23.094;2023-01-01T15:49:39;26.75;;;15.43;;
22754;SDS011;11544;42.020;23.094;2023-01-01T15:52:13;25.95;;;14.27;;
22754;SDS011;11544;42.020;23.094;2023-01-01T15:54:45;30.77;;;16.20;;
22754;SDS011;11544;42.020;23.094;2023-01-01T15:57:16;24.08;;;14.20;;
22754;SDS011;11544;42.020;23.094;2023-01-01T15:59:46;26.25;;;13.73;;
22754;SDS011;11544;42.020;23.094;2023-01-01T16:02:18;25.65;;;14.38;;
22754;SDS011;11544;42.020;23.094;2023-01-01T16:04:48;29.23;;;14.60;;
22754;SDS011;11544;42.020;23.094;2023-01-01T16:07:17;24.98;;;13.15;;
22754;SDS011;11544;42.020;23.094;2023-01-01T16:09:49;25.63;;;14.23;;
22754;SDS011;11544;42.020;23.094;2023-01-01T16:12:22;22.90;;;12.88;;
22754;SDS011;11544;42.020;23.094;2023-01-01T16:14:49;34.58;;;14.73;;
22754;SDS011;11544;42.020;23.094;2023-01-01T16:17:17;27.13;;;13.10;;
22754;SDS011;11544;42.020;23.094;2023-01-01T16:19:46;23.27;;;13.82;;
22754;SDS011;11544;42.020;23.094;2023-01-01T16:22:14;23.25;;;13.30;;
22754;SDS011;11544;42.020;23.094;2023-01-01T16:24:43;23.45;;;12.13;;
22754;SDS011;11544;42.020;23.094;2023-01-01T16:27:10;23.02;;;12.32;;
22754;SDS011;11544;42.020;23.094;2023-01-01T16:29:38;21.33;;;11.50;;
22754;SDS011;11544;42.020;23.094;2023-01-01T16:32:12;19.92;;;11.02;;
22754;SDS011;11544;42.020;23.094;2023-01-01T16:34:42;22.73;;;12.30;;
22754;SDS011;11544;42.020;23.094;2023-01-01T16:37:09;23.65;;;12.40;;
22754;SDS011;11544;42.020;23.094;2023-01-01T16:39:36;25.02;;;12.75;;
22754;SDS011;11544;42.020;23.094;2023-01-01T16:42:03;23.30;;;12.85;;
22754;SDS011;11544;42.020;23.094;2023-01-01T16:44:29;24.13;;;11.68;;
22754;SDS011;11544;42.020;23.094;2023-01-01T16:46:56;23.77;;;13.18;;
22754;SDS011;11544;42.020;23.094;2023-01-01T16:49:23;23.77;;;11.98;;
22754;SDS011;11544;42.020;23.094;2023-01-01T16:51:49;23.40;;;13.30;;
22754;SDS011;11544;42.020;23.094;2023-01-01T16:54:16;39.97;;;19.55;;
22754;SDS011;11544;42.020;23.094;2023-01-01T16:56:43;42.75;;;22.63;;
22754;SDS011;11544;42.020;23.094;2023-01-01T16:59:10;83.68;;;40.15;;
22754;SDS011;11544;42.020;23.094;2023-01-01T17:01:36;68.25;;;34.15;;
22754;SDS011;11544;42.020;23.094;2023-01-01T17:04:03;30.30;;;17.48;;